Time;durP1;ratioP1;P1;durP2;ratioP2;P2;SDS_P1;SDS_P2;PMS_P1;PMS_P2;Temp;Humidity;BMP_temperature;BMP_pressure;BME280_temperature;BME280_humidity;BME280_pressure;Samples;Min_cycle;Max_cycle;Signal;HPM_P1;HPM_P2
2023/01/02 07:23:07;;;;;;;20.75;4.90;;;;;;;;;;5185613;23;20152;-72
2023/01/02 07:25:33;;;;;;;14.77;4.72;;;;;;;;;;4858486;29;20022;-72
2023/01/02 07:27:59;;;;;;;18.00;4.28;;;;;;;;;;4861398;29;20108;-72
2023/01/02 07:30:26;;;;;;;20.58;4.35;;;;;;;;;;4862187;29;20036;-71
2023/01/02 07:32:52;;;;;;;21.60;3.85;;;;;;;;;;4862465;29;20038;-72
2023/01/02 07:35:19;;;;;;;15.70;4.47;;;;;;;;;;4860003;29;20043;-72
2023/01/02 07:37:45;;;;;;;18.45;4.25;;;;;;;;;;4857795;29;20414;-72
2023/01/02 07:40:11;;;;;;;18.33;4.35;;;;;;;;;;4861248;29;20041;-72
2023/01/02 07:42:38;;;;;;;25.52;5.18;;;;;;;;;;4860719;29;20081;-72
2023/01/02 07:45:04;;;;;;;20.20;4.70;;;;;;;;;;4862035;29;20040;-71
2023/01/02 07:47:31;;;;;;;23.25;4.90;;;;;;;;;;4862466;29;20022;-72
2023/01/02 07:49:58;;;;;;;19.40;4.28;;;;;;;;;;4861501;29;20034;-72
2023/01/02 07:52:24;;;;;;;18.67;3.92;;;;;;;;;;4861822;29;20050;-71
2023/01/02 07:54:50;;;;;;;21.98;4.80;;;;;;;;;;4861719;29;20379;-72
2023/01/02 07:57:16;;;;;;;24.02;4.18;;;;;;;;;;4862275;29;20033;-71
2023/01/02 07:59:45;;;;;;;15.10;3.83;;;;;;;;;;4861426;29;20021;-72
2023/01/02 08:02:12;;;;;;;16.83;4.10;;;;;;;;;;4861626;29;20041;-72
2023/01/02 08:04:38;;;;;;;19.83;3.95;;;;;;;;;;4861521;29;20021;-72
2023/01/02 08:07:04;;;;;;;15.77;3.92;;;;;;;;;;4861340;29;20031;-72
2023/01/02 08:09:31;;;;;;;24.58;4.70;;;;;;;;;;4861737;29;20617;-71
2023/01/02 08:11:57;;;;;;;22.33;4.65;;;;;;;;;;4861642;29;20034;-71
2023/01/02 08:14:23;;;;;;;19.30;3.88;;;;;;;;;;4861636;29;20048;-71
2023/01/02 08:16:50;;;;;;;24.17;4.70;;;;;;;;;;4862035;29;20026;-72
2023/01/02 08:19:16;;;;;;;15.23;4.30;;;;;;;;;;4861563;29;20111;-71
2023/01/02 08:21:43;;;;;;;18.05;4.13;;;;;;;;;;4863825;29;20490;-72
2023/01/02 08:24:09;;;;;;;18.52;4.40;;;;;;;;;;4878814;29;20029;-72
2023/01/02 08:26:35;;;;;;;21.35;4.80;;;;;;;;;;4867400;29;20058;-71
2023/01/02 08:29:02;;;;;;;16.05;4.18;;;;;;;;;;4878904;29;20017;-72
2023/01/02 08:31:28;;;;;;;20.70;4.20;;;;;;;;;;4879101;29;20025;-71
2023/01/02 08:33:54;;;;;;;18.98;4.70;;;;;;;;;;4879476;29;20037;-72
2023/01/02 08:36:21;;;;;;;20.25;4.38;;;;;;;;;;4879921;29;20025;-72
2023/01/02 08:38:47;;;;;;;15.57;4.47;;;;;;;;;;4879464;29;20039;-71
2023/01/02 08:41:14;;;;;;;14.20;3.95;;;;;;;;;;4862714;29;20031;-71
2023/01/02 08:43:40;;;;;;;20.52;4.63;;;;;;;;;;4879174;29;20037;-72
2023/01/02 08:46:07;;;;;;;18.95;4.13;;;;;;;;;;4879543;29;20401;-72
2023/01/02 08:48:34;;;;;;;19.23;3.97;;;;;;;;;;4879786;29;20029;-72
2023/01/02 08:51:01;;;;;;;17.30;4.50;;;;;;;;;;4879587;29;20037;-71
2023/01/02 08:53:27;;;;;;;23.05;5.22;;;;;;;;;;4878968;29;20619;-72
2023/01/02 08:55:54;;;;;;;18.02;4.85;;;;;;;;;;4879899;29;20021;-72
2023/01/02 08:58:20;;;;;;;18.60;4.40;;;;;;;;;;4879775;29;20025;-72
2023/01/02 09:00:46;;;;;;;24.23;3.90;;;;;;;;;;4877994;29;20035;-72
2023/01/02 09:03:13;;;;;;;20.13;4.00;;;;;;;;;;4879422;29;20036;-71
2023/01/02 09:05:39;;;;;;;19.63;4.88;;;;;;;;;;4878365;29;20427;-71
2023/01/02 09:08:05;;;;;;;18.65;4.20;;;;;;;;;;4876807;29;20033;-71
2023/01/02 09:10:31;;;;;;;21.90;4.20;;;;;;;;;;4878853;29;20025;-72
2023/01/02 09:12:58;;;;;;;14.05;3.88;;;;;;;;;;4879103;29;20025;-72
2023/01/02 09:15:24;;;;;;;23.48;4.25;;;;;;;;;;4878585;29;20387;-71
2023/01/02 09:17:50;;;;;;;16.38;4.75;;;;;;;;;;4862478;29;20029;-71
2023/01/02 09:20:17;;;;;;;17.02;4.00;;;;;;;;;;4878771;29;20389;-72
2023/01/02 09:22:43;;;;;;;19.75;4.45;;;;;;;;;;4878397;29;20053;-72
2023/01/02 09:25:09;;;;;;;22.30;4.85;;;;;;;;;;4877958;29;20545;-72
2023/01/02 09:27:36;;;;;;;14.57;4.30;;;;;;;;;;4890712;29;20039;-72
2023/01/02 09:30:02;;;;;;;19.17;4.35;;;;;;;;;;4871305;29;20039;-72
2023/01/02 09:32:29;;;;;;;19.67;4.70;;;;;;;;;;4878532;29;20417;-72
2023/01/02 09:34:56;;;;;;;15.50;4.10;;;;;;;;;;4878050;29;20025;-72
2023/01/02 09:37:22;;;;;;;20.88;4.50;;;;;;;;;;4859186;29;20050;-72
2023/01/02 09:39:48;;;;;;;17.48;3.92;;;;;;;;;;4860365;29;20036;-72
2023/01/02 09:42:16;;;;;;;27.02;4.55;;;;;;;;;;4860077;29;20505;-72
2023/01/02 09:44:47;;;;;;;16.80;4.10;;;;;;;;;;4860171;29;20029;-72
2023/01/02 09:47:18;;;;;;;19.95;4.15;;;;;;;;;;4860312;29;20030;-72
2023/01/02 09:49:49;;;;;;;18.42;4.57;;;;;;;;;;4874821;29;20051;-71
2023/01/02 09:52:19;;;;;;;22.35;4.03;;;;;;;;;;4878473;29;20029;-72
2023/01/02 09:54:46;;;;;;;25.02;3.90;;;;;;;;;;4858048;29;20045;-72
2023/01/02 09:57:21;;;;;;;16.00;4.43;;;;;;;;;;4878766;29;20039;-72
2023/01/02 09:59:53;;;;;;;21.45;3.83;;;;;;;;;;4878330;29;20043;-72
2023/01/02 10:02:25;;;;;;;16.80;3.85;;;;;;;;;;4878458;29;20025;-72
2023/01/02 10:05:18;;;;;;;26.98;4.07;;;;;;;;;;4878058;29;20033;-72
2023/01/02 10:08:03;;;;;;;17.63;4.72;;;;;;;;;;4878656;29;20033;-72
2023/01/02 10:10:33;;;;;;;14.73;3.88;;;;;;;;;;4878793;29;20033;-72
2023/01/02 10:13:05;;;;;;;23.67;3.85;;;;;;;;;;4878818;29;20033;-72
2023/01/02 10:15:32;;;;;;;15.27;3.40;;;;;;;;;;4861917;29;20047;-72
2023/01/02 10:18:00;;;;;;;23.65;4.30;;;;;;;;;;4878200;29;20017;-72
2023/01/02 10:20:35;;;;;;;14.02;3.58;;;;;;;;;;4877888;29;20039;-72
2023/01/02 10:23:14;;;;;;;22.50;4.00;;;;;;;;;;4876991;29;20059;-72
2023/01/02 10:25:46;;;;;;;18.08;3.78;;;;;;;;;;4877885;29;20039;-72
2023/01/02 10:28:34;;;;;;;17.83;3.60;;;;;;;;;;4878493;29;20024;-72
2023/01/02 10:31:03;;;;;;;16.95;3.95;;;;;;;;;;4896934;29;20033;-72
2023/01/02 10:33:47;;;;;;;21.50;4.20;;;;;;;;;;4896160;29;20036;-72
2023/01/02 10:36:20;;;;;;;16.52;3.63;;;;;;;;;;4896646;29;20035;-72
2023/01/02 10:38:46;;;;;;;12.13;3.55;;;;;;;;;;4893327;29;20401;-72
2023/01/02 10:41:12;;;;;;;24.33;4.60;;;;;;;;;;4881306;29;20487;-72
2023/01/02 10:43:39;;;;;;;20.30;4.05;;;;;;;;;;4881964;29;20040;-72
2023/01/02 10:46:05;;;;;;;11.25;3.50;;;;;;;;;;4881740;29;20017;-72
2023/01/02 10:48:33;;;;;;;21.80;4.68;;;;;;;;;;4881215;29;20033;-72
2023/01/02 10:51:04;;;;;;;17.70;3.95;;;;;;;;;;4890287;29;20033;-72
2023/01/02 10:53:31;;;;;;;;;;;;;;;;;;4900637;29;20036;-72
2023/01/02 10:56:01;;;;;;;18.27;3.95;;;;;;;;;;4884567;29;19964;-72
2023/01/02 10:58:28;;;;;;;15.57;4.13;;;;;;;;;;4881663;29;20055;-72
2023/01/02 11:01:05;;;;;;;18.02;3.65;;;;;;;;;;4881090;29;20272;-71
2023/01/02 11:03:32;;;;;;;24.13;4.40;;;;;;;;;;4881280;29;20033;-72
2023/01/02 11:05:59;;;;;;;14.20;3.67;;;;;;;;;;4880991;29;20025;-72
2023/01/02 11:08:36;;;;;;;20.98;4.07;;;;;;;;;;4880531;29;20029;-72
2023/01/02 11:11:12;;;;;;;17.85;4.97;;;;;;;;;;4867221;29;20512;-72
2023/01/02 11:13:46;;;;;;;17.52;3.90;;;;;;;;;;4879904;29;20041;-72
2023/01/02 11:16:14;;;;;;;24.30;4.93;;;;;;;;;;4880985;29;20067;-72
2023/01/02 11:18:48;;;;;;;21.42;4.45;;;;;;;;;;4881146;29;20059;-72
2023/01/02 11:21:23;;;;;;;13.95;4.13;;;;;;;;;;4881181;29;20025;-72
2023/01/02 11:23:49;;;;;;;21.92;4.88;;;;;;;;;;4864745;29;20101;-73
2023/01/02 11:26:20;;;;;;;15.02;4.07;;;;;;;;;;4883423;29;20029;-72
2023/01/02 11:28:48;;;;;;;19.20;4.07;;;;;;;;;;4900028;29;20025;-71
2023/01/02 11:31:15;;;;;;;17.38;4.05;;;;;;;;;;4899322;29;20273;-72
2023/01/02 11:33:42;;;;;;;14.43;3.60;;;;;;;;;;4899632;29;20049;-72
2023/01/02 11:36:11;;;;;;;14.65;3.90;;;;;;;;;;4900073;29;20042;-72
2023/01/02 11:38:46;;;;;;;17.88;3.92;;;;;;;;;;4899618;29;20115;-72
2023/01/02 11:44:37;;;;;;;16.73;3.55;;;;;;;;;;4899584;29;20528;-72
2023/01/02 11:47:04;;;;;;;22.35;4.03;;;;;;;;;;4899148;29;20503;-72
2023/01/02 11:49:37;;;;;;;17.08;3.90;;;;;;;;;;4899031;29;20454;-72
2023/01/02 11:52:04;;;;;;;25.50;4.45;;;;;;;;;;4899695;29;20025;-72
2023/01/02 11:54:34;;;;;;;17.23;3.90;;;;;;;;;;4899578;29;20044;-72
2023/01/02 11:57:00;;;;;;;16.52;3.60;;;;;;;;;;4899755;29;20039;-72
2023/01/02 11:59:39;;;;;;;21.00;3.88;;;;;;;;;;4899589;29;20028;-72
2023/01/02 12:02:14;;;;;;;19.17;4.25;;;;;;;;;;4899604;29;20058;-72
2023/01/02 12:04:40;;;;;;;14.82;4.22;;;;;;;;;;4883651;29;20029;-72
2023/01/02 12:07:16;;;;;;;17.08;3.80;;;;;;;;;;4880443;29;20551;-72
2023/01/02 12:09:57;;;;;;;17.58;4.10;;;;;;;;;;4880641;29;20033;-72
2023/01/02 12:12:42;;;;;;;22.13;3.67;;;;;;;;;;4880384;29;20025;-71
2023/01/02 12:15:17;;;;;;;18.38;4.10;;;;;;;;;;4880278;29;20486;-72
2023/01/02 12:17:47;;;;;;;19.98;4.13;;;;;;;;;;4880411;29;20023;-72
2023/01/02 12:20:13;;;;;;;13.55;3.97;;;;;;;;;;4880269;29;20351;-71
2023/01/02 12:22:42;;;;;;;19.92;4.47;;;;;;;;;;4880160;29;20541;-72
2023/01/02 12:25:23;;;;;;;19.83;4.10;;;;;;;;;;4880189;29;20033;-72
2023/01/02 12:28:08;;;;;;;17.13;4.38;;;;;;;;;;4894489;29;20040;-72
2023/01/02 12:30:37;;;;;;;13.35;4.03;;;;;;;;;;4898492;29;20029;-72
2023/01/02 12:33:20;;;;;;;16.75;4.00;;;;;;;;;;4898692;29;20041;-72
2023/01/02 12:36:05;;;;;;;20.73;4.03;;;;;;;;;;4882020;29;20037;-72
2023/01/02 12:38:31;;;;;;;15.23;3.95;;;;;;;;;;4898686;29;20520;-72
2023/01/02 12:41:10;;;;;;;14.52;3.85;;;;;;;;;;4893474;29;20039;-72
2023/01/02 12:43:36;;;;;;;14.45;3.10;;;;;;;;;;4878088;29;20040;-72
2023/01/02 12:46:10;;;;;;;14.93;3.88;;;;;;;;;;4878930;29;20033;-72
2023/01/02 12:49:06;;;;;;;17.20;3.88;;;;;;;;;;4879381;29;20056;-72
2023/01/02 12:51:41;;;;;;;14.98;3.75;;;;;;;;;;4785918;30;20058;-72
2023/01/02 12:54:16;;;;;;;15.35;3.90;;;;;;;;;;4786083;29;20040;-72
2023/01/02 12:56:50;;;;;;;15.23;3.83;;;;;;;;;;4789635;29;20467;-72
2023/01/02 12:59:37;;;;;;;14.05;3.40;;;;;;;;;;4791329;29;20023;-72
2023/01/02 13:02:15;;;;;;;15.40;3.88;;;;;;;;;;4765774;30;20102;-72
2023/01/02 13:04:48;;;;;;;18.77;3.97;;;;;;;;;;4784361;29;20043;-72
2023/01/02 13:07:20;;;;;;;13.50;3.70;;;;;;;;;;4786443;29;20516;-72
2023/01/02 13:09:47;;;;;;;19.88;3.70;;;;;;;;;;4785212;29;20173;-72
2023/01/02 13:12:15;;;;;;;15.30;3.65;;;;;;;;;;4785647;30;20071;-72
2023/01/02 13:14:55;;;;;;;14.52;3.92;;;;;;;;;;4785688;30;20127;-72
2023/01/02 13:17:22;;;;;;;13.77;3.97;;;;;;;;;;4785074;30;20445;-72
2023/01/02 13:19:52;;;;;;;23.45;3.95;;;;;;;;;;4783295;30;20042;-72
2023/01/02 13:22:18;;;;;;;14.50;3.67;;;;;;;;;;4782751;30;20043;-72
2023/01/02 13:24:45;;;;;;;20.13;4.13;;;;;;;;;;4784459;30;20034;-72
2023/01/02 13:27:11;;;;;;;14.98;3.80;;;;;;;;;;4811771;29;20044;-72
2023/01/02 13:29:41;;;;;;;15.60;4.00;;;;;;;;;;4884698;29;20443;-72
2023/01/02 13:32:09;;;;;;;16.73;3.80;;;;;;;;;;4878104;29;20557;-72
2023/01/02 13:34:39;;;;;;;18.48;4.28;;;;;;;;;;4875436;29;20041;-72
2023/01/02 13:37:07;;;;;;;19.37;4.53;;;;;;;;;;4878058;29;20033;-72
2023/01/02 13:39:39;;;;;;;22.10;5.32;;;;;;;;;;4877682;29;20153;-72
2023/01/02 13:44:54;;;;;;;21.50;6.50;;;;;;;;;;4877359;29;20036;-72
2023/01/02 13:47:37;;;;;;;20.15;6.47;;;;;;;;;;4877252;29;20410;-72
2023/01/02 13:50:19;;;;;;;26.25;6.30;;;;;;;;;;4877354;29;20434;-72
2023/01/02 13:53:00;;;;;;;15.18;6.47;;;;;;;;;;4860690;29;20498;-72
2023/01/02 13:55:31;;;;;;;25.02;6.90;;;;;;;;;;4877424;29;20013;-72
2023/01/02 13:57:57;;;;;;;;;;;;;;;;;;4877259;29;20025;-73
2023/01/02 14:00:34;;;;;;;26.05;9.48;;;;;;;;;;4877577;29;19955;-72
2023/01/02 14:03:17;;;;;;;32.67;9.57;;;;;;;;;;4877249;29;20494;-73
2023/01/02 14:05:56;;;;;;;29.63;11.88;;;;;;;;;;4876394;29;20043;-73
2023/01/02 14:08:45;;;;;;;41.42;12.15;;;;;;;;;;4877345;29;20037;-73
2023/01/02 14:11:18;;;;;;;34.17;11.68;;;;;;;;;;4873297;29;20052;-73
2023/01/02 14:13:47;;;;;;;33.10;12.20;;;;;;;;;;4874107;29;20404;-73
2023/01/02 14:16:22;;;;;;;31.25;12.80;;;;;;;;;;4876664;29;20043;-72
2023/01/02 14:19:03;;;;;;;38.08;13.13;;;;;;;;;;4877092;29;20039;-72
2023/01/02 14:21:40;;;;;;;34.88;12.32;;;;;;;;;;4876622;29;20040;-72
2023/01/02 14:24:07;;;;;;;32.92;12.35;;;;;;;;;;4876001;29;20502;-72
2023/01/02 14:26:34;;;;;;;44.80;14.80;;;;;;;;;;4878888;29;20025;-72
2023/01/02 14:29:06;;;;;;;26.95;11.98;;;;;;;;;;4880599;29;20031;-72
2023/01/02 14:31:34;;;;;;;27.27;8.88;;;;;;;;;;4885896;29;20039;-72
2023/01/02 14:34:00;;;;;;;33.38;9.85;;;;;;;;;;4860429;29;20043;-72
2023/01/02 14:36:41;;;;;;;27.05;9.48;;;;;;;;;;4877037;29;20143;-72
2023/01/02 14:39:10;;;;;;;29.40;10.02;;;;;;;;;;4875030;29;20104;-72
2023/01/02 14:44:39;;;;;;;33.75;12.88;;;;;;;;;;4876674;29;20033;-72
2023/01/02 14:47:10;;;;;;;36.50;13.75;;;;;;;;;;4876809;29;20025;-73
2023/01/02 14:49:36;;;;;;;40.83;15.88;;;;;;;;;;4858311;29;20489;-72
2023/01/02 14:52:07;;;;;;;36.70;16.63;;;;;;;;;;4873866;29;20025;-72
2023/01/02 14:54:42;;;;;;;39.88;15.30;;;;;;;;;;4871629;29;20041;-72
2023/01/02 14:57:16;;;;;;;40.90;16.17;;;;;;;;;;4875655;29;20031;-72
2023/01/02 14:59:46;;;;;;;28.15;12.52;;;;;;;;;;4876785;29;20417;-72
2023/01/02 15:02:13;;;;;;;37.80;13.23;;;;;;;;;;4877055;29;20365;-72
2023/01/02 15:04:44;;;;;;;31.13;13.05;;;;;;;;;;4876753;29;20037;-72
2023/01/02 15:07:32;;;;;;;28.55;12.30;;;;;;;;;;4858725;29;20032;-72
2023/01/02 15:10:05;;;;;;;31.15;13.93;;;;;;;;;;4864326;29;20025;-72
2023/01/02 15:15:19;;;;;;;39.13;20.33;;;;;;;;;;4876913;29;20041;-72
2023/01/02 15:17:47;;;;;;;46.42;19.88;;;;;;;;;;4876265;29;20025;-72
2023/01/02 15:20:18;;;;;;;37.55;16.02;;;;;;;;;;4876837;29;20100;-72
2023/01/02 15:22:44;;;;;;;;;;;;;;;;;;4882822;29;20410;-73
2023/01/02 15:25:12;;;;;;;29.40;13.30;;;;;;;;;;4877963;29;19911;-72
2023/01/02 15:27:39;;;;;;;30.58;14.45;;;;;;;;;;4894914;29;20421;-72
2023/01/02 15:30:22;;;;;;;34.03;13.25;;;;;;;;;;4864168;29;20040;-72
2023/01/02 15:32:49;;;;;;;27.25;11.05;;;;;;;;;;4880326;29;20041;-72
2023/01/02 15:35:15;;;;;;;33.92;11.95;;;;;;;;;;4881970;29;20595;-73
2023/01/02 15:37:45;;;;;;;24.40;10.30;;;;;;;;;;4896264;29;20043;-72
2023/01/02 15:40:25;;;;;;;27.07;11.83;;;;;;;;;;4879688;29;20037;-73
2023/01/02 15:45:43;;;;;;;27.20;11.77;;;;;;;;;;4879778;29;20021;-72
2023/01/02 15:48:11;;;;;;;25.02;12.02;;;;;;;;;;4879895;29;20033;-72
2023/01/02 15:50:37;;;;;;;24.95;10.68;;;;;;;;;;4879449;29;20033;-73
2023/01/02 15:53:05;;;;;;;23.27;10.85;;;;;;;;;;4879250;29;20040;-72
2023/01/02 15:55:39;;;;;;;31.52;12.30;;;;;;;;;;4879610;29;20429;-72
2023/01/02 15:58:31;;;;;;;33.10;15.55;;;;;;;;;;4886660;29;20473;-72
2023/01/02 16:01:17;;;;;;;36.63;17.20;;;;;;;;;;4888780;29;20042;-73
2023/01/02 16:03:45;;;;;;;39.75;18.73;;;;;;;;;;4888023;29;20025;-72
2023/01/02 16:06:19;;;;;;;31.63;17.08;;;;;;;;;;4898207;29;20402;-72
2023/01/02 16:08:50;;;;;;;32.35;15.70;;;;;;;;;;4898484;29;20033;-72
2023/01/02 16:11:17;;;;;;;37.45;17.90;;;;;;;;;;4895764;29;20029;-72
2023/01/02 16:16:43;;;;;;;28.45;12.27;;;;;;;;;;4879916;29;20490;-72
2023/01/02 16:19:14;;;;;;;26.55;11.70;;;;;;;;;;4879167;29;20402;-72
2023/01/02 16:21:40;;;;;;;;;;;;;;;;;;4860897;29;20034;-72
2023/01/02 16:24:09;;;;;;;26.80;11.57;;;;;;;;;;4867054;29;19918;-72
2023/01/02 16:26:39;;;;;;;28.98;11.95;;;;;;;;;;4883577;29;20033;-73
2023/01/02 16:29:10;;;;;;;21.90;10.73;;;;;;;;;;4892826;29;20032;-72
2023/01/02 16:31:51;;;;;;;23.73;12.02;;;;;;;;;;4879452;29;20517;-72
2023/01/02 16:34:31;;;;;;;28.40;12.43;;;;;;;;;;4879441;29;20037;-72
2023/01/02 16:37:09;;;;;;;35.33;13.37;;;;;;;;;;4879009;29;20414;-72
2023/01/02 16:39:40;;;;;;;28.60;11.45;;;;;;;;;;4879319;29;20037;-72
2023/01/02 16:44:55;;;;;;;27.75;13.50;;;;;;;;;;4878996;29;20025;-72
2023/01/02 16:47:25;;;;;;;32.08;16.88;;;;;;;;;;4863112;29;20039;-72
2023/01/02 16:49:51;;;;;;;31.00;15.05;;;;;;;;;;4879265;29;20077;-72
2023/01/02 16:52:18;;;;;;;32.35;14.07;;;;;;;;;;4879683;29;20044;-73
2023/01/02 16:54:44;;;;;;;32.85;15.10;;;;;;;;;;4879146;29;20037;-72
2023/01/02 16:57:15;;;;;;;31.90;15.65;;;;;;;;;;4862665;29;20484;-72
2023/01/02 16:59:41;;;;;;;29.55;15.60;;;;;;;;;;4879112;29;20036;-72
2023/01/02 17:02:11;;;;;;;38.42;14.60;;;;;;;;;;4878937;29;20033;-72
2023/01/02 17:04:37;;;;;;;30.52;13.43;;;;;;;;;;4878685;29;20570;-72
2023/01/02 17:07:03;;;;;;;26.08;12.63;;;;;;;;;;4879216;29;20039;-72
2023/01/02 17:09:30;;;;;;;31.02;12.63;;;;;;;;;;4879036;29;20095;-73
2023/01/02 17:11:59;;;;;;;25.33;12.23;;;;;;;;;;4878677;29;20017;-72
2023/01/02 17:14:30;;;;;;;26.48;12.27;;;;;;;;;;4877589;29;20052;-72
2023/01/02 17:16:57;;;;;;;23.95;11.38;;;;;;;;;;4862090;29;20037;-72
2023/01/02 17:19:23;;;;;;;22.08;11.32;;;;;;;;;;4878737;29;20060;-72
2023/01/02 17:21:50;;;;;;;24.50;11.10;;;;;;;;;;4861961;29;20037;-72
2023/01/02 17:24:17;;;;;;;22.63;11.25;;;;;;;;;;4861590;29;20041;-72
2023/01/02 17:26:44;;;;;;;28.30;11.35;;;;;;;;;;4884230;29;20327;-73
2023/01/02 17:29:10;;;;;;;24.75;11.80;;;;;;;;;;4897334;29;20418;-72
2023/01/02 17:31:36;;;;;;;23.58;11.48;;;;;;;;;;4897492;29;20032;-73
2023/01/02 17:34:03;;;;;;;16.10;9.23;;;;;;;;;;4896730;29;20078;-72
2023/01/02 17:36:30;;;;;;;17.77;8.13;;;;;;;;;;4897132;29;20393;-72
2023/01/02 17:38:56;;;;;;;16.48;7.15;;;;;;;;;;4897076;29;20025;-72
2023/01/02 17:41:23;;;;;;;16.65;7.57;;;;;;;;;;4896935;29;20240;-72
2023/01/02 17:43:49;;;;;;;15.68;7.13;;;;;;;;;;4897225;29;20029;-72
2023/01/02 17:46:15;;;;;;;18.63;7.45;;;;;;;;;;4896868;29;20064;-72
2023/01/02 17:48:42;;;;;;;16.58;7.57;;;;;;;;;;4896000;29;20067;-72
2023/01/02 17:51:08;;;;;;;10.25;6.70;;;;;;;;;;4897405;29;20028;-72
2023/01/02 17:53:35;;;;;;;11.98;6.55;;;;;;;;;;4896760;29;20042;-72
2023/01/02 17:56:01;;;;;;;11.35;6.78;;;;;;;;;;4896774;29;20046;-72
2023/01/02 17:58:28;;;;;;;12.90;7.38;;;;;;;;;;4896834;29;20401;-72
2023/01/02 18:00:56;;;;;;;14.73;7.28;;;;;;;;;;4896557;29;20050;-72
2023/01/02 18:03:22;;;;;;;12.80;6.53;;;;;;;;;;4896482;29;20032;-72
2023/01/02 18:05:49;;;;;;;18.65;7.00;;;;;;;;;;4896701;29;20477;-73
2023/01/02 18:08:15;;;;;;;10.82;5.60;;;;;;;;;;4896917;29;20028;-72
2023/01/02 18:10:41;;;;;;;10.32;4.82;;;;;;;;;;4896388;29;20405;-72
2023/01/02 18:13:08;;;;;;;11.25;5.80;;;;;;;;;;4893177;29;20029;-72
2023/01/02 18:15:34;;;;;;;12.77;5.68;;;;;;;;;;4878162;29;20044;-72
2023/01/02 18:18:02;;;;;;;17.00;5.85;;;;;;;;;;4877504;29;20027;-72
2023/01/02 18:20:28;;;;;;;15.48;6.47;;;;;;;;;;4877912;29;20029;-72
2023/01/02 18:22:56;;;;;;;17.58;8.75;;;;;;;;;;4877468;29;20135;-72
2023/01/02 18:25:25;;;;;;;21.35;11.27;;;;;;;;;;4877588;29;20105;-72
2023/01/02 18:27:55;;;;;;;25.17;13.27;;;;;;;;;;4892237;29;20029;-72
2023/01/02 18:30:23;;;;;;;21.40;10.50;;;;;;;;;;4896729;29;20031;-72
2023/01/02 18:32:52;;;;;;;20.35;9.98;;;;;;;;;;4895919;29;20407;-72
2023/01/02 18:35:19;;;;;;;16.27;9.60;;;;;;;;;;4896321;29;20096;-72
2023/01/02 18:37:45;;;;;;;23.05;10.90;;;;;;;;;;4896395;29;20031;-72
2023/01/02 18:40:34;;;;;;;8.30;5.45;;;;;;;;;;4896604;29;20041;-72
2023/01/02 18:43:15;;;;;;;12.10;6.50;;;;;;;;;;4879755;29;20031;-72
2023/01/02 18:45:42;;;;;;;45.47;16.58;;;;;;;;;;4896027;29;20494;-72
2023/01/02 18:48:18;;;;;;;13.90;6.13;;;;;;;;;;4896231;29;20031;-72
2023/01/02 18:50:45;;;;;;;20.40;8.95;;;;;;;;;;4896126;29;20035;-72
2023/01/02 18:53:16;;;;;;;17.38;7.53;;;;;;;;;;4896512;29;20037;-72
2023/01/02 18:55:43;;;;;;;17.95;6.97;;;;;;;;;;4896516;29;20035;-72
2023/01/02 18:58:29;;;;;;;12.57;6.35;;;;;;;;;;4896276;29;20490;-72
2023/01/02 19:00:55;;;;;;;12.70;6.53;;;;;;;;;;4897997;29;20620;-72
2023/01/02 19:03:26;;;;;;;15.05;7.45;;;;;;;;;;4899973;29;20024;-72
2023/01/02 19:05:52;;;;;;;21.80;7.73;;;;;;;;;;4899889;29;20029;-72
2023/01/02 19:08:29;;;;;;;15.35;7.55;;;;;;;;;;4900105;29;20024;-72
2023/01/02 19:10:56;;;;;;;13.40;6.70;;;;;;;;;;4899911;29;20024;-72
2023/01/02 19:13:25;;;;;;;15.35;6.57;;;;;;;;;;4894439;29;20048;-72
2023/01/02 19:15:59;;;;;;;15.05;7.90;;;;;;;;;;4880721;29;20028;-72
2023/01/02 19:18:28;;;;;;;14.02;7.25;;;;;;;;;;4880988;29;20029;-72
2023/01/02 19:20:58;;;;;;;14.32;7.72;;;;;;;;;;4880861;29;20088;-73
2023/01/02 19:23:44;;;;;;;13.73;7.80;;;;;;;;;;4880432;29;20421;-72
2023/01/02 19:26:14;;;;;;;17.92;9.15;;;;;;;;;;4788189;29;20039;-72
2023/01/02 19:28:45;;;;;;;15.50;9.73;;;;;;;;;;4805179;29;20051;-72
2023/01/02 19:31:13;;;;;;;18.23;11.38;;;;;;;;;;4804872;29;20045;-72
2023/01/02 19:33:42;;;;;;;21.15;11.93;;;;;;;;;;4805022;29;20039;-72
2023/01/02 19:36:13;;;;;;;17.80;11.40;;;;;;;;;;4804966;29;20049;-72
2023/01/02 19:38:40;;;;;;;52.47;19.15;;;;;;;;;;4804839;29;20429;-72
2023/01/02 19:41:06;;;;;;;51.33;19.80;;;;;;;;;;4804901;29;20041;-72
2023/01/02 19:43:33;;;;;;;52.58;19.92;;;;;;;;;;4804631;29;20046;-71
2023/01/02 19:46:00;;;;;;;40.33;18.02;;;;;;;;;;4805111;29;20031;-72
2023/01/02 19:48:26;;;;;;;16.95;8.75;;;;;;;;;;4804851;29;20063;-72
2023/01/02 19:50:52;;;;;;;9.35;6.35;;;;;;;;;;4804681;29;20049;-72
2023/01/02 19:53:19;;;;;;;12.68;8.35;;;;;;;;;;4804688;29;20457;-72
2023/01/02 19:55:45;;;;;;;13.43;7.10;;;;;;;;;;4804916;29;20047;-72
2023/01/02 19:58:11;;;;;;;14.20;7.35;;;;;;;;;;4804340;29;20041;-72
2023/01/02 20:00:38;;;;;;;13.15;8.02;;;;;;;;;;4804729;29;20043;-72
2023/01/02 20:03:04;;;;;;;28.98;18.23;;;;;;;;;;4843952;29;20403;-72
2023/01/02 20:05:31;;;;;;;17.88;11.15;;;;;;;;;;4899078;29;20055;-72
2023/01/02 20:07:58;;;;;;;21.42;12.65;;;;;;;;;;4881867;29;20029;-72
2023/01/02 20:10:24;;;;;;;26.30;13.63;;;;;;;;;;4898255;29;20039;-72
2023/01/02 20:12:51;;;;;;;45.97;23.00;;;;;;;;;;4897161;29;20024;-72
2023/01/02 20:15:18;;;;;;;54.95;28.20;;;;;;;;;;4879949;29;20041;-72
2023/01/02 20:17:45;;;;;;;34.90;17.77;;;;;;;;;;4879959;29;20402;-72
2023/01/02 20:20:12;;;;;;;24.48;13.20;;;;;;;;;;4879925;29;20435;-72
2023/01/02 20:22:41;;;;;;;21.65;11.75;;;;;;;;;;4879446;29;20053;-72
2023/01/02 20:25:08;;;;;;;21.25;13.68;;;;;;;;;;4879822;29;20037;-72
2023/01/02 20:27:34;;;;;;;23.58;15.52;;;;;;;;;;4891754;29;20036;-72
2023/01/02 20:30:01;;;;;;;28.73;18.50;;;;;;;;;;4881579;29;20031;-72
2023/01/02 20:32:27;;;;;;;27.23;18.33;;;;;;;;;;4897260;29;20076;-72
2023/01/02 20:34:54;;;;;;;27.05;19.27;;;;;;;;;;4898626;29;20041;-72
2023/01/02 20:37:20;;;;;;;35.42;21.35;;;;;;;;;;4898468;29;20039;-72
2023/01/02 20:39:50;;;;;;;34.17;22.67;;;;;;;;;;4898433;29;20032;-72
2023/01/02 20:42:17;;;;;;;30.90;21.33;;;;;;;;;;4897712;29;20516;-72
2023/01/02 20:44:43;;;;;;;36.08;22.30;;;;;;;;;;4898479;29;20036;-72
2023/01/02 20:47:10;;;;;;;32.90;21.83;;;;;;;;;;4898435;29;20020;-72
2023/01/02 20:49:37;;;;;;;36.58;20.88;;;;;;;;;;4897973;29;20029;-72
2023/01/02 20:52:04;;;;;;;33.97;20.52;;;;;;;;;;4898366;29;20032;-72
2023/01/02 20:54:30;;;;;;;33.63;19.33;;;;;;;;;;4898048;29;20091;-72
2023/01/02 20:56:56;;;;;;;29.17;18.98;;;;;;;;;;4897627;29;20029;-72
2023/01/02 20:59:23;;;;;;;29.60;19.90;;;;;;;;;;4896492;29;20033;-72
2023/01/02 21:01:49;;;;;;;29.48;20.52;;;;;;;;;;4897716;29;20028;-72
2023/01/02 21:04:16;;;;;;;35.33;20.83;;;;;;;;;;4897479;29;20032;-72
2023/01/02 21:06:42;;;;;;;31.15;19.50;;;;;;;;;;4897774;29;20029;-72
2023/01/02 21:09:08;;;;;;;29.30;17.20;;;;;;;;;;4898034;29;20029;-72
2023/01/02 21:11:35;;;;;;;27.80;17.25;;;;;;;;;;4897120;29;20029;-72
2023/01/02 21:14:01;;;;;;;25.35;16.95;;;;;;;;;;4887506;29;20051;-72
2023/01/02 21:16:29;;;;;;;25.27;15.13;;;;;;;;;;4879041;29;20029;-72
2023/01/02 21:18:58;;;;;;;23.60;15.20;;;;;;;;;;4878759;29;20047;-72
2023/01/02 21:21:25;;;;;;;23.85;16.38;;;;;;;;;;4879040;29;20033;-72
2023/01/02 21:23:51;;;;;;;26.40;17.13;;;;;;;;;;4878008;29;20048;-72
2023/01/02 21:26:20;;;;;;;30.63;16.80;;;;;;;;;;4880511;29;20033;-72
2023/01/02 21:28:47;;;;;;;30.05;17.83;;;;;;;;;;4880669;29;20033;-72
2023/01/02 21:31:15;;;;;;;30.38;19.35;;;;;;;;;;4897329;29;20248;-72
2023/01/02 21:33:42;;;;;;;35.08;21.17;;;;;;;;;;4897235;29;20040;-72
2023/01/02 21:36:09;;;;;;;29.30;19.20;;;;;;;;;;4897406;29;20032;-72
2023/01/02 21:38:36;;;;;;;31.63;20.25;;;;;;;;;;4897056;29;20040;-72
2023/01/02 21:43:48;;;;;;;39.95;22.92;;;;;;;;;;4897050;29;20025;-72
2023/01/02 21:46:14;;;;;;;40.53;22.98;;;;;;;;;;4897049;29;20029;-72
2023/01/02 21:48:41;;;;;;;65.13;26.58;;;;;;;;;;4880346;29;20032;-72
2023/01/02 21:51:07;;;;;;;88.03;29.08;;;;;;;;;;4897137;29;20036;-73
2023/01/02 21:53:33;;;;;;;29.05;11.55;;;;;;;;;;4896771;29;20035;-72
2023/01/02 21:56:00;;;;;;;12.90;6.00;;;;;;;;;;4896785;29;20032;-73
2023/01/02 21:58:26;;;;;;;12.45;3.72;;;;;;;;;;4896870;29;20371;-72
2023/01/02 22:00:52;;;;;;;3.92;2.50;;;;;;;;;;4896628;29;20041;-72
2023/01/02 22:03:19;;;;;;;3.55;2.08;;;;;;;;;;4896695;29;20028;-72
2023/01/02 22:05:45;;;;;;;5.22;2.17;;;;;;;;;;4897013;29;20043;-72
2023/01/02 22:08:11;;;;;;;4.32;2.13;;;;;;;;;;4896592;29;20024;-72
2023/01/02 22:10:38;;;;;;;4.93;2.20;;;;;;;;;;4896520;29;20019;-72
2023/01/02 22:13:04;;;;;;;4.60;2.17;;;;;;;;;;4894018;29;20033;-72
2023/01/02 22:15:30;;;;;;;4.30;2.03;;;;;;;;;;4877886;29;20037;-72
2023/01/02 22:17:57;;;;;;;5.95;2.92;;;;;;;;;;4878078;29;20025;-72
2023/01/02 22:20:23;;;;;;;5.93;2.72;;;;;;;;;;4877914;29;20040;-72
2023/01/02 22:22:49;;;;;;;11.07;5.38;;;;;;;;;;4877668;29;20067;-72
2023/01/02 22:25:16;;;;;;;7.57;3.75;;;;;;;;;;4877817;29;20054;-72